sensor_id;sensor_type;location;lat;lon;timestamp;P1;durP1;ratioP1;P2;durP2;ratioP2
37905;SDS011;23739;51.448;6.674;2023-06-10T00:02:08;6.22;;;5.65;;
37905;SDS011;23739;51.448;6.674;2023-06-10T00:04:34;9.48;;;6.10;;
37905;SDS011;23739;51.448;6.674;2023-06-10T00:07:03;6.82;;;6.13;;
37905;SDS011;23739;51.448;6.674;2023-06-10T00:09:34;14.20;;;6.85;;
37905;SDS011;23739;51.448;6.674;2023-06-10T00:12:02;8.43;;;5.60;;
37905;SDS011;23739;51.448;6.674;2023-06-10T00:14:28;9.57;;;5.70;;
37905;SDS011;23739;51.448;6.674;2023-06-10T00:16:54;8.70;;;6.22;;
37905;SDS011;23739;51.448;6.674;2023-06-10T00:19:20;9.70;;;5.82;;
37905;SDS011;23739;51.448;6.674;2023-06-10T00:21:51;9.60;;;5.90;;
37905;SDS011;23739;51.448;6.674;2023-06-10T00:24:17;12.07;;;6.40;;
37905;SDS011;23739;51.448;6.674;2023-06-10T00:26:43;9.95;;;6.68;;
37905;SDS011;23739;51.448;6.674;2023-06-10T00:29:10;7.55;;;6.30;;
37905;SDS011;23739;51.448;6.674;2023-06-10T00:31:36;9.85;;;6.82;;
37905;SDS011;23739;51.448;6.674;2023-06-10T00:34:03;7.47;;;5.90;;
37905;SDS011;23739;51.448;6.674;2023-06-10T00:36:29;10.10;;;6.40;;
37905;SDS011;23739;51.448;6.674;2023-06-10T00:38:56;9.88;;;5.82;;
37905;SDS011;23739;51.448;6.674;2023-06-10T00:41:22;7.15;;;6.18;;
37905;SDS011;23739;51.448;6.674;2023-06-10T00:43:48;11.00;;;6.07;;
37905;SDS011;23739;51.448;6.674;2023-06-10T00:46:14;10.95;;;6.72;;
37905;SDS011;23739;51.448;6.674;2023-06-10T00:48:41;7.53;;;5.85;;
37905;SDS011;23739;51.448;6.674;2023-06-10T00:51:08;8.75;;;6.25;;
37905;SDS011;23739;51.448;6.674;2023-06-10T00:53:35;13.43;;;6.47;;
37905;SDS011;23739;51.448;6.674;2023-06-10T00:56:01;8.13;;;6.93;;
37905;SDS011;23739;51.448;6.674;2023-06-10T00:58:28;8.13;;;5.90;;
37905;SDS011;23739;51.448;6.674;2023-06-10T01:00:54;7.72;;;6.38;;
37905;SDS011;23739;51.448;6.674;2023-06-10T01:03:20;7.07;;;5.80;;
37905;SDS011;23739;51.448;6.674;2023-06-10T01:05:48;7.20;;;6.53;;
37905;SDS011;23739;51.448;6.674;2023-06-10T01:08:19;8.55;;;6.20;;
37905;SDS011;23739;51.448;6.674;2023-06-10T01:10:51;6.88;;;5.95;;
37905;SDS011;23739;51.448;6.674;2023-06-10T01:13:19;8.68;;;5.97;;
37905;SDS011;23739;51.448;6.674;2023-06-10T01:15:49;10.02;;;6.93;;
37905;SDS011;23739;51.448;6.674;2023-06-10T01:18:15;8.18;;;6.43;;
37905;SDS011;23739;51.448;6.674;2023-06-10T01:20:42;7.10;;;6.30;;
37905;SDS011;23739;51.448;6.674;2023-06-10T01:23:09;6.95;;;6.25;;
37905;SDS011;23739;51.448;6.674;2023-06-10T01:25:39;7.90;;;6.20;;
37905;SDS011;23739;51.448;6.674;2023-06-10T01:28:17;8.23;;;5.90;;
37905;SDS011;23739;51.448;6.674;2023-06-10T01:33:26;8.65;;;6.68;;
37905;SDS011;23739;51.448;6.674;2023-06-10T01:35:53;8.50;;;6.68;;
37905;SDS011;23739;51.448;6.674;2023-06-10T01:38:21;10.52;;;6.30;;
37905;SDS011;23739;51.448;6.674;2023-06-10T01:40:48;8.23;;;6.50;;
37905;SDS011;23739;51.448;6.674;2023-06-10T01:43:15;9.18;;;7.03;;
37905;SDS011;23739;51.448;6.674;2023-06-10T01:45:41;8.30;;;7.03;;
37905;SDS011;23739;51.448;6.674;2023-06-10T01:48:07;7.18;;;6.32;;
37905;SDS011;23739;51.448;6.674;2023-06-10T01:50:33;9.93;;;7.88;;
37905;SDS011;23739;51.448;6.674;2023-06-10T01:52:59;10.27;;;6.35;;
37905;SDS011;23739;51.448;6.674;2023-06-10T01:55:25;9.30;;;7.15;;
37905;SDS011;23739;51.448;6.674;2023-06-10T01:57:52;8.95;;;6.95;;
37905;SDS011;23739;51.448;6.674;2023-06-10T02:00:18;8.20;;;6.40;;
37905;SDS011;23739;51.448;6.674;2023-06-10T02:02:44;10.98;;;6.97;;
37905;SDS011;23739;51.448;6.674;2023-06-10T02:05:10;9.85;;;7.47;;
37905;SDS011;23739;51.448;6.674;2023-06-10T02:07:36;9.23;;;6.90;;
37905;SDS011;23739;51.448;6.674;2023-06-10T02:10:03;10.25;;;7.25;;
37905;SDS011;23739;51.448;6.674;2023-06-10T02:12:29;10.45;;;7.68;;
37905;SDS011;23739;51.448;6.674;2023-06-10T02:14:55;9.25;;;7.10;;
37905;SDS011;23739;51.448;6.674;2023-06-10T02:17:21;11.90;;;8.13;;
37905;SDS011;23739;51.448;6.674;2023-06-10T02:19:48;10.10;;;7.78;;
37905;SDS011;23739;51.448;6.674;2023-06-10T02:22:21;11.38;;;8.30;;
37905;SDS011;23739;51.448;6.674;2023-06-10T02:24:47;8.20;;;6.93;;
37905;SDS011;23739;51.448;6.674;2023-06-10T02:27:13;11.02;;;8.85;;
37905;SDS011;23739;51.448;6.674;2023-06-10T02:29:40;9.90;;;8.13;;
37905;SDS011;23739;51.448;6.674;2023-06-10T02:32:06;11.60;;;10.05;;
37905;SDS011;23739;51.448;6.674;2023-06-10T02:34:32;13.70;;;10.10;;
37905;SDS011;23739;51.448;6.674;2023-06-10T02:36:59;15.55;;;9.27;;
37905;SDS011;23739;51.448;6.674;2023-06-10T02:39:26;18.55;;;9.90;;
37905;SDS011;23739;51.448;6.674;2023-06-10T02:41:52;13.45;;;9.15;;
37905;SDS011;23739;51.448;6.674;2023-06-10T02:44:18;11.80;;;9.25;;
37905;SDS011;23739;51.448;6.674;2023-06-10T02:46:45;19.17;;;10.50;;
37905;SDS011;23739;51.448;6.674;2023-06-10T02:49:11;12.95;;;10.05;;
37905;SDS011;23739;51.448;6.674;2023-06-10T02:51:38;13.05;;;10.60;;
37905;SDS011;23739;51.448;6.674;2023-06-10T02:54:05;16.73;;;10.20;;
37905;SDS011;23739;51.448;6.674;2023-06-10T02:56:31;12.57;;;10.50;;
37905;SDS011;23739;51.448;6.674;2023-06-10T02:58:58;11.68;;;9.63;;
37905;SDS011;23739;51.448;6.674;2023-06-10T03:01:24;13.02;;;9.30;;
37905;SDS011;23739;51.448;6.674;2023-06-10T03:03:50;13.00;;;9.10;;
37905;SDS011;23739;51.448;6.674;2023-06-10T03:06:17;13.88;;;8.63;;
37905;SDS011;23739;51.448;6.674;2023-06-10T03:08:43;13.65;;;9.63;;
37905;SDS011;23739;51.448;6.674;2023-06-10T03:11:12;10.82;;;9.13;;
37905;SDS011;23739;51.448;6.674;2023-06-10T03:13:39;11.40;;;9.73;;
37905;SDS011;23739;51.448;6.674;2023-06-10T03:16:05;12.75;;;10.73;;
37905;SDS011;23739;51.448;6.674;2023-06-10T03:18:32;12.98;;;9.40;;
37905;SDS011;23739;51.448;6.674;2023-06-10T03:20:58;11.60;;;9.95;;
37905;SDS011;23739;51.448;6.674;2023-06-10T03:23:25;14.25;;;11.13;;
37905;SDS011;23739;51.448;6.674;2023-06-10T03:25:52;12.32;;;10.40;;
37905;SDS011;23739;51.448;6.674;2023-06-10T03:28:19;13.35;;;10.73;;
37905;SDS011;23739;51.448;6.674;2023-06-10T03:30:46;14.68;;;10.77;;
37905;SDS011;23739;51.448;6.674;2023-06-10T03:33:12;14.10;;;10.40;;
37905;SDS011;23739;51.448;6.674;2023-06-10T03:35:39;12.48;;;10.07;;
37905;SDS011;23739;51.448;6.674;2023-06-10T03:38:05;12.30;;;11.10;;
37905;SDS011;23739;51.448;6.674;2023-06-10T03:40:31;11.57;;;9.88;;
37905;SDS011;23739;51.448;6.674;2023-06-10T03:42:57;12.93;;;10.23;;
37905;SDS011;23739;51.448;6.674;2023-06-10T03:45:24;12.60;;;11.10;;
37905;SDS011;23739;51.448;6.674;2023-06-10T03:47:53;12.18;;;10.30;;
37905;SDS011;23739;51.448;6.674;2023-06-10T03:50:19;15.65;;;10.40;;
37905;SDS011;23739;51.448;6.674;2023-06-10T03:52:46;11.30;;;9.65;;
37905;SDS011;23739;51.448;6.674;2023-06-10T03:55:12;14.63;;;10.50;;
37905;SDS011;23739;51.448;6.674;2023-06-10T03:57:38;13.63;;;10.73;;
37905;SDS011;23739;51.448;6.674;2023-06-10T04:00:05;11.95;;;10.68;;
37905;SDS011;23739;51.448;6.674;2023-06-10T04:02:40;15.80;;;10.70;;
37905;SDS011;23739;51.448;6.674;2023-06-10T04:05:11;14.70;;;9.88;;
37905;SDS011;23739;51.448;6.674;2023-06-10T04:07:37;10.27;;;8.95;;
37905;SDS011;23739;51.448;6.674;2023-06-10T04:10:07;12.35;;;10.52;;
37905;SDS011;23739;51.448;6.674;2023-06-10T04:12:34;16.33;;;11.82;;
37905;SDS011;23739;51.448;6.674;2023-06-10T04:15:00;13.18;;;10.75;;
37905;SDS011;23739;51.448;6.674;2023-06-10T04:17:27;12.15;;;10.43;;
37905;SDS011;23739;51.448;6.674;2023-06-10T04:19:53;11.85;;;10.02;;
37905;SDS011;23739;51.448;6.674;2023-06-10T04:22:19;11.98;;;9.82;;
37905;SDS011;23739;51.448;6.674;2023-06-10T04:24:46;11.65;;;9.55;;
37905;SDS011;23739;51.448;6.674;2023-06-10T04:27:12;13.23;;;10.35;;
37905;SDS011;23739;51.448;6.674;2023-06-10T04:29:38;11.35;;;9.90;;
37905;SDS011;23739;51.448;6.674;2023-06-10T04:32:04;11.63;;;9.80;;
37905;SDS011;23739;51.448;6.674;2023-06-10T04:34:32;10.82;;;9.63;;
37905;SDS011;23739;51.448;6.674;2023-06-10T04:36:59;11.43;;;9.88;;
37905;SDS011;23739;51.448;6.674;2023-06-10T04:39:25;13.25;;;10.25;;
37905;SDS011;23739;51.448;6.674;2023-06-10T04:41:51;13.20;;;9.57;;
37905;SDS011;23739;51.448;6.674;2023-06-10T04:44:17;11.82;;;10.57;;
37905;SDS011;23739;51.448;6.674;2023-06-10T04:46:44;10.82;;;9.43;;
37905;SDS011;23739;51.448;6.674;2023-06-10T04:49:10;11.65;;;9.30;;
37905;SDS011;23739;51.448;6.674;2023-06-10T04:51:39;11.02;;;9.35;;
37905;SDS011;23739;51.448;6.674;2023-06-10T04:54:05;11.23;;;9.07;;
37905;SDS011;23739;51.448;6.674;2023-06-10T04:56:31;11.13;;;8.85;;
37905;SDS011;23739;51.448;6.674;2023-06-10T04:58:58;11.43;;;9.65;;
37905;SDS011;23739;51.448;6.674;2023-06-10T05:01:24;11.73;;;9.75;;
37905;SDS011;23739;51.448;6.674;2023-06-10T05:03:50;10.30;;;9.02;;
37905;SDS011;23739;51.448;6.674;2023-06-10T05:06:16;14.30;;;9.75;;
37905;SDS011;23739;51.448;6.674;2023-06-10T05:08:42;13.00;;;8.85;;
37905;SDS011;23739;51.448;6.674;2023-06-10T05:11:08;13.63;;;8.68;;
37905;SDS011;23739;51.448;6.674;2023-06-10T05:13:35;12.85;;;9.00;;
37905;SDS011;23739;51.448;6.674;2023-06-10T05:16:01;12.65;;;8.60;;
37905;SDS011;23739;51.448;6.674;2023-06-10T05:18:27;15.55;;;8.52;;
37905;SDS011;23739;51.448;6.674;2023-06-10T05:20:53;13.80;;;8.75;;
37905;SDS011;23739;51.448;6.674;2023-06-10T05:23:20;11.23;;;7.78;;
37905;SDS011;23739;51.448;6.674;2023-06-10T05:25:46;10.18;;;8.57;;
37905;SDS011;23739;51.448;6.674;2023-06-10T05:28:12;10.85;;;7.40;;
37905;SDS011;23739;51.448;6.674;2023-06-10T05:30:39;10.07;;;7.38;;
37905;SDS011;23739;51.448;6.674;2023-06-10T05:33:05;10.23;;;7.18;;
37905;SDS011;23739;51.448;6.674;2023-06-10T05:35:31;10.45;;;7.72;;
37905;SDS011;23739;51.448;6.674;2023-06-10T05:37:57;10.80;;;7.95;;
37905;SDS011;23739;51.448;6.674;2023-06-10T05:40:23;9.80;;;8.25;;
37905;SDS011;23739;51.448;6.674;2023-06-10T05:42:49;10.63;;;7.55;;
37905;SDS011;23739;51.448;6.674;2023-06-10T05:45:15;13.75;;;7.75;;
37905;SDS011;23739;51.448;6.674;2023-06-10T05:47:41;9.77;;;8.25;;
37905;SDS011;23739;51.448;6.674;2023-06-10T05:50:08;10.77;;;7.38;;
37905;SDS011;23739;51.448;6.674;2023-06-10T05:52:35;10.45;;;7.72;;
37905;SDS011;23739;51.448;6.674;2023-06-10T05:55:02;10.07;;;7.28;;
37905;SDS011;23739;51.448;6.674;2023-06-10T05:57:28;8.02;;;6.90;;
37905;SDS011;23739;51.448;6.674;2023-06-10T05:59:54;9.52;;;7.47;;
37905;SDS011;23739;51.448;6.674;2023-06-10T06:02:20;9.18;;;6.93;;
37905;SDS011;23739;51.448;6.674;2023-06-10T06:04:46;7.88;;;6.47;;
37905;SDS011;23739;51.448;6.674;2023-06-10T06:07:12;11.50;;;6.97;;
37905;SDS011;23739;51.448;6.674;2023-06-10T06:09:38;10.38;;;6.95;;
37905;SDS011;23739;51.448;6.674;2023-06-10T06:12:05;10.77;;;7.15;;
37905;SDS011;23739;51.448;6.674;2023-06-10T06:14:32;10.32;;;6.20;;
37905;SDS011;23739;51.448;6.674;2023-06-10T06:16:58;8.00;;;5.82;;
37905;SDS011;23739;51.448;6.674;2023-06-10T06:19:24;8.55;;;6.80;;
37905;SDS011;23739;51.448;6.674;2023-06-10T06:21:50;11.02;;;5.65;;
37905;SDS011;23739;51.448;6.674;2023-06-10T06:24:16;9.63;;;6.32;;
37905;SDS011;23739;51.448;6.674;2023-06-10T06:26:42;11.90;;;7.18;;
37905;SDS011;23739;51.448;6.674;2023-06-10T06:29:08;14.20;;;6.10;;
37905;SDS011;23739;51.448;6.674;2023-06-10T06:31:34;11.63;;;6.05;;
37905;SDS011;23739;51.448;6.674;2023-06-10T06:34:00;10.90;;;6.43;;
37905;SDS011;23739;51.448;6.674;2023-06-10T07:05:00;11.95;;;6.25;;
37905;SDS011;23739;51.448;6.674;2023-06-10T07:07:26;7.47;;;5.95;;
37905;SDS011;23739;51.448;6.674;2023-06-10T07:09:53;7.88;;;5.47;;
37905;SDS011;23739;51.448;6.674;2023-06-10T07:12:19;7.65;;;5.25;;
37905;SDS011;23739;51.448;6.674;2023-06-10T07:14:48;8.15;;;5.90;;
37905;SDS011;23739;51.448;6.674;2023-06-10T07:17:14;6.72;;;5.32;;
37905;SDS011;23739;51.448;6.674;2023-06-10T07:19:40;8.50;;;5.22;;
37905;SDS011;23739;51.448;6.674;2023-06-10T07:22:07;7.47;;;5.18;;
37905;SDS011;23739;51.448;6.674;2023-06-10T07:24:33;8.40;;;5.07;;
37905;SDS011;23739;51.448;6.674;2023-06-10T07:26:59;6.90;;;5.68;;
37905;SDS011;23739;51.448;6.674;2023-06-10T07:29:26;10.48;;;5.88;;
37905;SDS011;23739;51.448;6.674;2023-06-10T07:31:52;7.00;;;5.93;;
37905;SDS011;23739;51.448;6.674;2023-06-10T07:34:18;8.95;;;5.45;;
37905;SDS011;23739;51.448;6.674;2023-06-10T07:36:45;8.02;;;5.50;;
37905;SDS011;23739;51.448;6.674;2023-06-10T07:39:11;8.38;;;5.82;;
37905;SDS011;23739;51.448;6.674;2023-06-10T07:41:37;5.85;;;5.22;;
37905;SDS011;23739;51.448;6.674;2023-06-10T07:44:03;6.28;;;5.47;;
37905;SDS011;23739;51.448;6.674;2023-06-10T07:46:29;8.15;;;5.65;;
37905;SDS011;23739;51.448;6.674;2023-06-10T07:48:55;7.47;;;5.25;;
37905;SDS011;23739;51.448;6.674;2023-06-10T07:51:21;9.82;;;5.78;;
37905;SDS011;23739;51.448;6.674;2023-06-10T07:53:47;6.18;;;4.85;;
37905;SDS011;23739;51.448;6.674;2023-06-10T07:56:14;6.43;;;5.03;;
37905;SDS011;23739;51.448;6.674;2023-06-10T07:58:40;7.75;;;5.60;;
37905;SDS011;23739;51.448;6.674;2023-06-10T08:01:06;5.25;;;4.75;;
37905;SDS011;23739;51.448;6.674;2023-06-10T08:03:32;7.47;;;5.22;;
37905;SDS011;23739;51.448;6.674;2023-06-10T08:05:58;6.43;;;4.65;;
37905;SDS011;23739;51.448;6.674;2023-06-10T08:08:24;5.15;;;4.57;;
37905;SDS011;23739;51.448;6.674;2023-06-10T08:10:51;6.13;;;4.43;;
37905;SDS011;23739;51.448;6.674;2023-06-10T08:13:17;5.78;;;4.95;;
37905;SDS011;23739;51.448;6.674;2023-06-10T08:15:43;7.50;;;4.68;;
37905;SDS011;23739;51.448;6.674;2023-06-10T08:18:09;4.85;;;4.18;;
37905;SDS011;23739;51.448;6.674;2023-06-10T08:20:35;10.32;;;5.35;;
37905;SDS011;23739;51.448;6.674;2023-06-10T08:23:01;6.47;;;4.82;;
37905;SDS011;23739;51.448;6.674;2023-06-10T08:25:27;6.78;;;4.55;;
37905;SDS011;23739;51.448;6.674;2023-06-10T08:27:53;7.03;;;5.05;;
37905;SDS011;23739;51.448;6.674;2023-06-10T08:30:21;6.88;;;4.38;;
37905;SDS011;23739;51.448;6.674;2023-06-10T08:32:48;8.68;;;4.57;;
37905;SDS011;23739;51.448;6.674;2023-06-10T08:35:14;8.68;;;4.60;;
37905;SDS011;23739;51.448;6.674;2023-06-10T08:37:40;7.78;;;5.50;;
37905;SDS011;23739;51.448;6.674;2023-06-10T08:40:06;6.85;;;4.55;;
37905;SDS011;23739;51.448;6.674;2023-06-10T08:42:36;8.07;;;5.35;;
37905;SDS011;23739;51.448;6.674;2023-06-10T08:45:04;7.22;;;4.20;;
37905;SDS011;23739;51.448;6.674;2023-06-10T08:47:31;5.10;;;4.60;;
37905;SDS011;23739;51.448;6.674;2023-06-10T08:50:04;8.98;;;4.88;;
37905;SDS011;23739;51.448;6.674;2023-06-10T08:52:35;6.97;;;5.00;;
37905;SDS011;23739;51.448;6.674;2023-06-10T08:57:34;8.48;;;5.05;;
37905;SDS011;23739;51.448;6.674;2023-06-10T09:00:00;5.95;;;4.68;;
37905;SDS011;23739;51.448;6.674;2023-06-10T09:02:28;6.40;;;4.82;;
37905;SDS011;23739;51.448;6.674;2023-06-10T09:04:55;8.82;;;4.40;;
37905;SDS011;23739;51.448;6.674;2023-06-10T09:07:23;8.05;;;5.30;;
37905;SDS011;23739;51.448;6.674;2023-06-10T09:09:49;8.57;;;4.95;;
37905;SDS011;23739;51.448;6.674;2023-06-10T09:12:18;6.65;;;4.72;;
37905;SDS011;23739;51.448;6.674;2023-06-10T09:14:44;5.90;;;4.22;;
37905;SDS011;23739;51.448;6.674;2023-06-10T09:17:10;8.15;;;5.40;;
37905;SDS011;23739;51.448;6.674;2023-06-10T09:19:37;7.30;;;4.25;;
37905;SDS011;23739;51.448;6.674;2023-06-10T09:22:04;8.82;;;5.80;;
37905;SDS011;23739;51.448;6.674;2023-06-10T09:24:31;8.52;;;4.32;;
37905;SDS011;23739;51.448;6.674;2023-06-10T09:27:03;9.65;;;5.05;;
37905;SDS011;23739;51.448;6.674;2023-06-10T09:29:31;7.00;;;5.13;;
37905;SDS011;23739;51.448;6.674;2023-06-10T09:31:57;8.07;;;5.35;;
37905;SDS011;23739;51.448;6.674;2023-06-10T09:34:25;12.07;;;5.03;;
37905;SDS011;23739;51.448;6.674;2023-06-10T09:36:51;7.28;;;5.15;;
37905;SDS011;23739;51.448;6.674;2023-06-10T09:39:18;7.75;;;5.32;;
37905;SDS011;23739;51.448;6.674;2023-06-10T09:41:44;6.72;;;5.00;;
37905;SDS011;23739;51.448;6.674;2023-06-10T09:44:15;7.03;;;5.18;;
37905;SDS011;23739;51.448;6.674;2023-06-10T09:46:41;6.53;;;4.78;;
37905;SDS011;23739;51.448;6.674;2023-06-10T09:49:08;7.25;;;4.75;;
37905;SDS011;23739;51.448;6.674;2023-06-10T09:51:34;5.85;;;4.63;;
37905;SDS011;23739;51.448;6.674;2023-06-10T09:54:02;5.90;;;4.68;;
37905;SDS011;23739;51.448;6.674;2023-06-10T09:56:34;8.65;;;4.90;;
37905;SDS011;23739;51.448;6.674;2023-06-10T09:59:01;6.82;;;4.80;;
37905;SDS011;23739;51.448;6.674;2023-06-10T10:01:28;7.13;;;4.75;;
37905;SDS011;23739;51.448;6.674;2023-06-10T10:03:54;5.88;;;5.07;;
37905;SDS011;23739;51.448;6.674;2023-06-10T10:06:20;11.20;;;5.85;;
37905;SDS011;23739;51.448;6.674;2023-06-10T10:08:47;10.93;;;4.53;;
37905;SDS011;23739;51.448;6.674;2023-06-10T10:11:14;7.05;;;5.13;;
37905;SDS011;23739;51.448;6.674;2023-06-10T10:13:42;6.13;;;5.18;;
37905;SDS011;23739;51.448;6.674;2023-06-10T10:16:15;6.82;;;4.90;;
37905;SDS011;23739;51.448;6.674;2023-06-10T10:18:43;5.75;;;5.22;;
37905;SDS011;23739;51.448;6.674;2023-06-10T10:21:12;6.90;;;5.38;;
37905;SDS011;23739;51.448;6.674;2023-06-10T10:23:48;7.82;;;4.75;;
37905;SDS011;23739;51.448;6.674;2023-06-10T10:26:16;7.22;;;4.93;;
37905;SDS011;23739;51.448;6.674;2023-06-10T10:28:48;6.70;;;4.70;;
37905;SDS011;23739;51.448;6.674;2023-06-10T10:31:18;7.70;;;5.00;;
37905;SDS011;23739;51.448;6.674;2023-06-10T10:33:48;5.43;;;4.53;;
37905;SDS011;23739;51.448;6.674;2023-06-10T10:36:19;7.10;;;4.03;;
37905;SDS011;23739;51.448;6.674;2023-06-10T10:38:47;6.65;;;4.72;;
37905;SDS011;23739;51.448;6.674;2023-06-10T10:41:15;6.43;;;5.10;;
37905;SDS011;23739;51.448;6.674;2023-06-10T10:43:41;7.97;;;5.40;;
37905;SDS011;23739;51.448;6.674;2023-06-10T10:46:12;7.88;;;5.13;;
37905;SDS011;23739;51.448;6.674;2023-06-10T10:51:08;5.47;;;4.60;;
37905;SDS011;23739;51.448;6.674;2023-06-10T10:53:36;6.53;;;5.05;;
37905;SDS011;23739;51.448;6.674;2023-06-10T10:56:14;6.05;;;4.57;;
37905;SDS011;23739;51.448;6.674;2023-06-10T10:58:41;5.65;;;5.15;;
37905;SDS011;23739;51.448;6.674;2023-06-10T11:01:13;5.38;;;4.85;;
37905;SDS011;23739;51.448;6.674;2023-06-10T11:03:44;5.30;;;4.80;;
37905;SDS011;23739;51.448;6.674;2023-06-10T11:06:15;8.82;;;5.53;;
37905;SDS011;23739;51.448;6.674;2023-06-10T11:11:24;5.53;;;4.78;;
37905;SDS011;23739;51.448;6.674;2023-06-10T11:16:29;7.30;;;5.60;;
37905;SDS011;23739;51.448;6.674;2023-06-10T11:18:56;7.05;;;5.45;;
37905;SDS011;23739;51.448;6.674;2023-06-10T11:21:25;5.57;;;4.95;;
37905;SDS011;23739;51.448;6.674;2023-06-10T11:23:51;5.55;;;5.05;;
37905;SDS011;23739;51.448;6.674;2023-06-10T11:31:18;6.05;;;5.43;;
37905;SDS011;23739;51.448;6.674;2023-06-10T11:33:46;9.13;;;4.85;;
37905;SDS011;23739;51.448;6.674;2023-06-10T11:36:13;5.22;;;4.32;;
37905;SDS011;23739;51.448;6.674;2023-06-10T11:38:40;7.57;;;4.35;;
37905;SDS011;23739;51.448;6.674;2023-06-10T11:41:08;7.50;;;4.90;;
37905;SDS011;23739;51.448;6.674;2023-06-10T11:43:40;5.78;;;5.28;;
37905;SDS011;23739;51.448;6.674;2023-06-10T11:46:11;8.30;;;4.55;;
37905;SDS011;23739;51.448;6.674;2023-06-10T11:48:52;8.00;;;5.57;;
37905;SDS011;23739;51.448;6.674;2023-06-10T11:51:18;8.60;;;5.45;;
37905;SDS011;23739;51.448;6.674;2023-06-10T11:53:47;7.22;;;4.88;;
37905;SDS011;23739;51.448;6.674;2023-06-10T11:56:19;5.70;;;4.53;;
37905;SDS011;23739;51.448;6.674;2023-06-10T11:58:58;5.10;;;4.70;;
37905;SDS011;23739;51.448;6.674;2023-06-10T12:01:45;6.63;;;4.88;;
37905;SDS011;23739;51.448;6.674;2023-06-10T12:07:19;7.43;;;5.05;;
37905;SDS011;23739;51.448;6.674;2023-06-10T12:09:30;6.25;;;5.43;;
37905;SDS011;23739;51.448;6.674;2023-06-10T12:12:05;8.48;;;5.03;;
37905;SDS011;23739;51.448;6.674;2023-06-10T12:19:57;7.88;;;5.13;;
37905;SDS011;23739;51.448;6.674;2023-06-10T12:22:23;5.47;;;4.97;;
37905;SDS011;23739;51.448;6.674;2023-06-10T12:25:02;6.40;;;5.50;;
37905;SDS011;23739;51.448;6.674;2023-06-10T12:27:30;6.32;;;5.07;;
37905;SDS011;23739;51.448;6.674;2023-06-10T12:29:57;5.53;;;4.97;;
37905;SDS011;23739;51.448;6.674;2023-06-10T12:35:25;6.43;;;4.47;;
37905;SDS011;23739;51.448;6.674;2023-06-10T12:38:03;7.47;;;4.43;;
37905;SDS011;23739;51.448;6.674;2023-06-10T12:40:33;6.57;;;5.10;;
37905;SDS011;23739;51.448;6.674;2023-06-10T12:43:00;7.55;;;5.55;;
37905;SDS011;23739;51.448;6.674;2023-06-10T12:45:27;9.40;;;5.13;;
37905;SDS011;23739;51.448;6.674;2023-06-10T12:48:04;7.72;;;4.85;;
37905;SDS011;23739;51.448;6.674;2023-06-10T12:50:34;6.05;;;4.90;;
37905;SDS011;23739;51.448;6.674;2023-06-10T12:53:02;6.80;;;4.65;;
37905;SDS011;23739;51.448;6.674;2023-06-10T12:55:28;9.85;;;4.82;;
37905;SDS011;23739;51.448;6.674;2023-06-10T12:57:55;7.95;;;5.75;;
37905;SDS011;23739;51.448;6.674;2023-06-10T13:00:22;6.95;;;5.20;;
37905;SDS011;23739;51.448;6.674;2023-06-10T13:02:51;7.55;;;5.13;;
37905;SDS011;23739;51.448;6.674;2023-06-10T13:05:20;7.05;;;5.45;;
37905;SDS011;23739;51.448;6.674;2023-06-10T13:07:47;7.65;;;5.20;;
37905;SDS011;23739;51.448;6.674;2023-06-10T13:10:16;6.38;;;5.72;;
37905;SDS011;23739;51.448;6.674;2023-06-10T13:12:43;8.88;;;5.20;;
37905;SDS011;23739;51.448;6.674;2023-06-10T13:15:10;7.45;;;5.00;;
37905;SDS011;23739;51.448;6.674;2023-06-10T13:17:37;6.88;;;5.00;;
37905;SDS011;23739;51.448;6.674;2023-06-10T13:20:04;6.57;;;4.78;;
37905;SDS011;23739;51.448;6.674;2023-06-10T13:22:31;7.45;;;4.97;;
37905;SDS011;23739;51.448;6.674;2023-06-10T13:25:04;5.65;;;5.03;;
37905;SDS011;23739;51.448;6.674;2023-06-10T13:27:32;7.47;;;5.28;;
37905;SDS011;23739;51.448;6.674;2023-06-10T13:29:58;6.88;;;5.13;;
37905;SDS011;23739;51.448;6.674;2023-06-10T13:32:24;7.13;;;5.57;;
37905;SDS011;23739;51.448;6.674;2023-06-10T13:34:50;6.60;;;5.45;;
37905;SDS011;23739;51.448;6.674;2023-06-10T13:37:18;7.70;;;4.70;;
37905;SDS011;23739;51.448;6.674;2023-06-10T13:39:44;6.43;;;5.50;;
37905;SDS011;23739;51.448;6.674;2023-06-10T13:42:18;6.22;;;5.03;;
37905;SDS011;23739;51.448;6.674;2023-06-10T13:44:45;5.90;;;4.55;;
37905;SDS011;23739;51.448;6.674;2023-06-10T13:47:12;9.23;;;5.60;;
37905;SDS011;23739;51.448;6.674;2023-06-10T13:49:46;7.68;;;5.70;;
37905;SDS011;23739;51.448;6.674;2023-06-10T13:52:12;6.32;;;4.47;;
37905;SDS011;23739;51.448;6.674;2023-06-10T13:54:38;8.48;;;5.65;;
37905;SDS011;23739;51.448;6.674;2023-06-10T13:57:04;6.20;;;5.13;;
37905;SDS011;23739;51.448;6.674;2023-06-10T13:59:31;5.97;;;5.38;;
37905;SDS011;23739;51.448;6.674;2023-06-10T14:01:57;9.23;;;4.88;;
37905;SDS011;23739;51.448;6.674;2023-06-10T14:04:23;7.90;;;5.07;;
37905;SDS011;23739;51.448;6.674;2023-06-10T14:06:49;5.85;;;4.95;;
37905;SDS011;23739;51.448;6.674;2023-06-10T14:09:16;5.30;;;4.80;;
37905;SDS011;23739;51.448;6.674;2023-06-10T14:11:42;5.53;;;4.97;;
37905;SDS011;23739;51.448;6.674;2023-06-10T14:14:09;5.72;;;5.13;;
37905;SDS011;23739;51.448;6.674;2023-06-10T14:16:35;5.40;;;4.70;;
37905;SDS011;23739;51.448;6.674;2023-06-10T14:19:04;5.43;;;4.90;;
37905;SDS011;23739;51.448;6.674;2023-06-10T14:21:31;6.25;;;4.82;;
37905;SDS011;23739;51.448;6.674;2023-06-10T14:23:57;6.18;;;4.80;;
37905;SDS011;23739;51.448;6.674;2023-06-10T14:26:23;5.03;;;4.63;;
37905;SDS011;23739;51.448;6.674;2023-06-10T14:28:57;5.70;;;5.20;;
37905;SDS011;23739;51.448;6.674;2023-06-10T14:31:26;5.55;;;5.05;;
37905;SDS011;23739;51.448;6.674;2023-06-10T14:33:55;6.78;;;5.53;;
37905;SDS011;23739;51.448;6.674;2023-06-10T14:36:24;5.63;;;5.13;;
37905;SDS011;23739;51.448;6.674;2023-06-10T14:38:50;9.88;;;5.00;;
37905;SDS011;23739;51.448;6.674;2023-06-10T14:41:17;6.80;;;4.82;;
37905;SDS011;23739;51.448;6.674;2023-06-10T14:43:43;6.93;;;5.20;;
37905;SDS011;23739;51.448;6.674;2023-06-10T14:46:09;5.70;;;4.43;;
37905;SDS011;23739;51.448;6.674;2023-06-10T14:48:35;5.72;;;5.22;;
37905;SDS011;23739;51.448;6.674;2023-06-10T14:51:01;7.63;;;5.55;;
37905;SDS011;23739;51.448;6.674;2023-06-10T14:53:28;6.47;;;5.47;;
37905;SDS011;23739;51.448;6.674;2023-06-10T14:55:54;6.60;;;5.30;;
37905;SDS011;23739;51.448;6.674;2023-06-10T14:58:20;6.57;;;4.95;;
37905;SDS011;23739;51.448;6.674;2023-06-10T15:00:47;6.15;;;5.55;;
37905;SDS011;23739;51.448;6.674;2023-06-10T15:03:13;6.20;;;5.53;;
37905;SDS011;23739;51.448;6.674;2023-06-10T15:05:39;5.88;;;5.35;;
37905;SDS011;23739;51.448;6.674;2023-06-10T15:08:05;5.70;;;4.82;;
37905;SDS011;23739;51.448;6.674;2023-06-10T15:10:31;5.47;;;5.07;;
37905;SDS011;23739;51.448;6.674;2023-06-10T15:12:57;6.03;;;5.43;;
37905;SDS011;23739;51.448;6.674;2023-06-10T15:15:23;5.78;;;5.18;;
37905;SDS011;23739;51.448;6.674;2023-06-10T15:17:50;7.30;;;6.57;;
37905;SDS011;23739;51.448;6.674;2023-06-10T15:20:17;6.70;;;5.30;;
37905;SDS011;23739;51.448;6.674;2023-06-10T15:22:43;6.32;;;5.28;;
37905;SDS011;23739;51.448;6.674;2023-06-10T15:25:09;9.05;;;5.63;;
37905;SDS011;23739;51.448;6.674;2023-06-10T15:27:36;5.80;;;5.18;;
37905;SDS011;23739;51.448;6.674;2023-06-10T15:30:05;5.97;;;5.47;;
37905;SDS011;23739;51.448;6.674;2023-06-10T15:32:31;6.95;;;5.47;;
37905;SDS011;23739;51.448;6.674;2023-06-10T15:34:57;6.18;;;5.57;;
37905;SDS011;23739;51.448;6.674;2023-06-10T15:37:23;8.65;;;6.15;;
37905;SDS011;23739;51.448;6.674;2023-06-10T15:39:52;6.47;;;5.40;;
37905;SDS011;23739;51.448;6.674;2023-06-10T15:42:18;5.68;;;5.18;;